Time;durP1;ratioP1;P1;durP2;ratioP2;P2;SDS_P1;SDS_P2;PMS_P1;PMS_P2;Temp;Humidity;BMP_temperature;BMP_pressure;BME280_temperature;BME280_humidity;BME280_pressure;Samples;Min_cycle;Max_cycle;Signal;HPM_P1;HPM_P2
2024/01/09 00:00:06;;;;;;;4.75;3.10;;;-1.70;99.90;;;;;;5094058;28;20046;-75
2024/01/09 00:02:31;;;;;;;5.03;2.75;;;-1.70;99.90;;;;;;5093869;28;20040;-75
2024/01/09 00:04:57;;;;;;;10.10;3.03;;;-1.80;99.90;;;;;;5075510;28;20040;-75
2024/01/09 00:07:23;;;;;;;4.85;2.75;;;-1.80;99.90;;;;;;5075794;28;20415;-75
2024/01/09 00:09:48;;;;;;;6.32;3.05;;;-1.90;99.90;;;;;;5058845;28;20028;-75
2024/01/09 00:12:14;;;;;;;5.25;2.65;;;-1.80;99.90;;;;;;5075697;28;20093;-75
2024/01/09 00:14:39;;;;;;;7.38;2.92;;;-1.90;99.90;;;;;;5075441;28;20135;-74
2024/01/09 00:17:05;;;;;;;7.50;3.03;;;-1.80;99.90;;;;;;5075592;28;20051;-75
2024/01/09 00:19:31;;;;;;;6.00;2.75;;;-1.80;99.90;;;;;;5075123;28;20504;-75
2024/01/09 00:21:56;;;;;;;6.45;2.90;;;-1.80;99.90;;;;;;5093476;28;20167;-75
2024/01/09 00:24:22;;;;;;;5.15;2.78;;;-2.00;99.90;;;;;;5075228;28;20036;-74
2024/01/09 00:26:47;;;;;;;6.68;3.45;;;-1.90;99.90;;;;;;5074838;28;20031;-74
2024/01/09 00:29:13;;;;;;;5.15;2.70;;;-1.90;99.90;;;;;;5075268;28;20081;-75
2024/01/09 00:31:39;;;;;;;8.45;3.13;;;-1.90;99.90;;;;;;5075151;28;20411;-75
2024/01/09 00:34:04;;;;;;;7.25;4.40;;;-2.00;99.90;;;;;;5074989;28;20040;-74
2024/01/09 00:36:30;;;;;;;7.40;3.45;;;-2.00;99.90;;;;;;5093028;28;20040;-75
2024/01/09 00:38:55;;;;;;;5.07;2.80;;;-2.00;99.90;;;;;;5093105;28;20028;-75
2024/01/09 00:41:21;;;;;;;7.15;2.78;;;-2.00;99.90;;;;;;5074933;28;20032;-75
2024/01/09 00:43:47;;;;;;;5.43;3.05;;;-2.00;99.90;;;;;;5058110;28;20052;-74
2024/01/09 00:46:12;;;;;;;6.47;3.38;;;-2.00;99.90;;;;;;5074710;28;20032;-74
2024/01/09 00:48:38;;;;;;;4.75;2.42;;;-2.10;99.90;;;;;;5073589;28;20534;-74
2024/01/09 00:51:04;;;;;;;6.50;3.55;;;-2.10;99.90;;;;;;5075167;28;20127;-75
2024/01/09 00:53:29;;;;;;;5.70;3.00;;;-2.10;99.90;;;;;;5075063;28;20480;-75
2024/01/09 00:55:55;;;;;;;9.23;3.58;;;-2.10;99.90;;;;;;5074441;28;20085;-75
2024/01/09 00:58:21;;;;;;;6.03;3.17;;;-2.10;99.90;;;;;;5074524;28;20051;-74
2024/01/09 01:00:47;;;;;;;7.05;3.35;;;-2.10;99.90;;;;;;5073720;28;20522;-75
2024/01/09 01:03:12;;;;;;;5.85;3.08;;;-2.20;99.90;;;;;;5089542;28;20415;-74
2024/01/09 01:05:38;;;;;;;6.47;3.47;;;-2.20;99.90;;;;;;5074317;28;20121;-75
2024/01/09 01:08:04;;;;;;;6.85;3.00;;;-2.20;99.90;;;;;;5074068;28;20452;-75
2024/01/09 01:10:30;;;;;;;5.53;2.83;;;-2.20;99.90;;;;;;5076188;28;20403;-75
2024/01/09 01:12:55;;;;;;;6.22;3.30;;;-2.20;99.90;;;;;;5093897;28;20036;-75
2024/01/09 01:15:23;;;;;;;5.07;3.08;;;-2.20;99.90;;;;;;5094111;28;20036;-75
2024/01/09 01:17:48;;;;;;;4.82;3.15;;;-2.20;99.90;;;;;;5075693;28;20495;-74
2024/01/09 01:20:14;;;;;;;6.00;3.22;;;-2.20;99.90;;;;;;5074453;28;20085;-74
2024/01/09 01:22:41;;;;;;;7.18;3.35;;;-2.20;99.90;;;;;;5057397;28;20040;-74
2024/01/09 01:25:08;;;;;;;7.72;3.90;;;-2.20;99.90;;;;;;5057431;28;20036;-74
2024/01/09 01:27:34;;;;;;;4.57;2.90;;;-2.20;99.90;;;;;;5073990;28;20403;-74
2024/01/09 01:29:59;;;;;;;5.45;3.10;;;-2.20;99.90;;;;;;5074021;28;20043;-75
2024/01/09 01:32:25;;;;;;;6.95;2.88;;;-2.20;99.90;;;;;;5074021;28;20506;-75
2024/01/09 01:34:50;;;;;;;7.03;3.00;;;-2.30;99.90;;;;;;5074038;28;20119;-74
2024/01/09 01:37:16;;;;;;;5.53;3.42;;;-2.20;99.90;;;;;;5091993;28;20070;-74
2024/01/09 01:39:41;;;;;;;4.15;2.72;;;-2.40;99.90;;;;;;5073706;28;20040;-74
2024/01/09 01:42:07;;;;;;;8.07;3.08;;;-2.30;99.90;;;;;;5073771;28;20047;-75
2024/01/09 01:44:33;;;;;;;9.27;3.33;;;-2.40;99.90;;;;;;5092023;28;20035;-74
2024/01/09 01:46:58;;;;;;;8.63;3.53;;;-2.30;99.90;;;;;;5091920;28;20028;-74
2024/01/09 01:49:25;;;;;;;5.40;2.63;;;-2.40;99.90;;;;;;5091836;28;20055;-75
2024/01/09 01:51:51;;;;;;;6.95;3.55;;;-2.50;99.90;;;;;;5091775;28;20459;-74
2024/01/09 01:54:19;;;;;;;7.75;2.97;;;-2.40;99.90;;;;;;5073837;28;20042;-75
2024/01/09 01:56:46;;;;;;;6.28;2.88;;;-2.40;99.90;;;;;;5091545;28;20478;-75
2024/01/09 01:59:16;;;;;;;7.07;2.65;;;-2.40;99.90;;;;;;5073374;28;20062;-75
2024/01/09 02:01:43;;;;;;;5.53;2.95;;;-2.50;99.90;;;;;;5091802;28;20122;-76
2024/01/09 02:04:10;;;;;;;5.72;2.95;;;-2.40;99.90;;;;;;5056990;28;20047;-76
2024/01/09 02:06:37;;;;;;;7.45;3.03;;;-2.50;99.90;;;;;;5073206;28;20056;-75
2024/01/09 02:09:03;;;;;;;4.38;2.92;;;-2.50;99.90;;;;;;5073325;28;20036;-75
2024/01/09 02:11:29;;;;;;;7.38;3.10;;;-2.50;99.90;;;;;;5073842;28;20036;-75
2024/01/09 02:13:55;;;;;;;4.93;2.63;;;-2.50;99.90;;;;;;5091707;28;20415;-74
2024/01/09 02:16:20;;;;;;;6.13;3.13;;;-2.50;99.90;;;;;;5091579;28;20043;-75
2024/01/09 02:18:46;;;;;;;6.15;2.90;;;-2.50;99.90;;;;;;5073321;28;20036;-74
2024/01/09 02:21:11;;;;;;;7.35;3.95;;;-2.50;99.90;;;;;;5091480;28;20032;-74
2024/01/09 02:23:38;;;;;;;5.25;3.00;;;-2.50;99.90;;;;;;5091273;28;20403;-75
2024/01/09 02:26:05;;;;;;;8.32;3.17;;;-2.50;99.90;;;;;;5073804;28;20203;-74
2024/01/09 02:28:33;;;;;;;5.18;2.60;;;-2.50;99.90;;;;;;5056725;28;20101;-75
2024/01/09 02:31:00;;;;;;;4.85;2.95;;;-2.60;99.90;;;;;;5073615;28;20076;-75
2024/01/09 02:33:28;;;;;;;6.05;2.90;;;-2.60;99.90;;;;;;5073232;28;20058;-75
2024/01/09 02:35:53;;;;;;;4.60;2.70;;;-2.50;99.90;;;;;;5056793;28;20028;-75
2024/01/09 02:38:21;;;;;;;5.15;3.10;;;-2.60;99.90;;;;;;5072920;28;20556;-74
2024/01/09 02:40:46;;;;;;;4.40;2.60;;;-2.70;99.90;;;;;;5073498;28;20376;-75
2024/01/09 02:43:12;;;;;;;5.13;2.88;;;-2.60;99.90;;;;;;5073108;28;20040;-75
2024/01/09 02:45:37;;;;;;;10.00;3.75;;;-2.60;99.90;;;;;;5073224;28;20398;-74
2024/01/09 02:48:03;;;;;;;4.53;2.83;;;-2.70;99.90;;;;;;5073037;28;20038;-74
2024/01/09 02:50:29;;;;;;;5.72;3.35;;;-2.70;99.90;;;;;;5073509;28;20396;-75
2024/01/09 02:52:55;;;;;;;5.45;2.92;;;-2.70;99.90;;;;;;5073307;28;20040;-74
2024/01/09 02:55:20;;;;;;;6.57;2.90;;;-2.60;99.90;;;;;;5073050;28;20071;-75
2024/01/09 02:57:46;;;;;;;7.63;3.05;;;-2.70;99.90;;;;;;5072858;28;20040;-74
2024/01/09 03:00:11;;;;;;;12.05;3.78;;;-2.60;99.90;;;;;;5091310;28;20040;-74
2024/01/09 03:02:37;;;;;;;6.32;3.47;;;-2.70;99.90;;;;;;5073237;28;20087;-74
2024/01/09 03:07:31;;;;;;;6.53;2.55;;;-2.70;99.90;;;;;;5028388;28;20053;-74
2024/01/09 03:09:57;;;;;;;5.18;2.70;;;-2.70;99.90;;;;;;5011528;28;20045;-74
2024/01/09 03:12:22;;;;;;;5.97;3.22;;;-2.80;99.90;;;;;;5032539;28;20037;-74
2024/01/09 03:14:48;;;;;;;7.22;2.75;;;-2.80;99.90;;;;;;5033961;28;20486;-74
2024/01/09 03:17:13;;;;;;;6.85;2.67;;;-2.90;99.90;;;;;;5034734;28;20037;-74
2024/01/09 03:19:41;;;;;;;6.30;3.38;;;-2.80;99.90;;;;;;5036231;28;20037;-75
2024/01/09 03:22:06;;;;;;;4.60;2.83;;;-2.90;99.90;;;;;;5054050;28;20076;-74
2024/01/09 03:24:32;;;;;;;5.75;2.53;;;-2.80;99.90;;;;;;5054212;28;20097;-74
2024/01/09 03:26:57;;;;;;;6.18;2.90;;;-2.90;99.90;;;;;;5035854;28;20102;-74
2024/01/09 03:29:23;;;;;;;7.55;2.90;;;-2.90;99.90;;;;;;5036149;28;20507;-74
2024/01/09 03:31:49;;;;;;;4.60;2.65;;;-2.90;99.90;;;;;;5054213;28;20126;-74
2024/01/09 03:34:15;;;;;;;5.95;2.30;;;-2.90;99.90;;;;;;5054040;28;20393;-74
2024/01/09 03:36:44;;;;;;;6.13;2.67;;;-2.90;99.90;;;;;;5053471;28;20191;-74
2024/01/09 03:39:11;;;;;;;4.95;2.72;;;-3.00;99.90;;;;;;5035957;28;20041;-74
2024/01/09 03:41:37;;;;;;;5.35;3.15;;;-3.00;99.90;;;;;;5035907;28;20118;-74
2024/01/09 03:44:02;;;;;;;6.80;2.95;;;-3.00;99.90;;;;;;5053851;28;20060;-74
2024/01/09 03:46:28;;;;;;;4.82;2.90;;;-3.00;99.90;;;;;;5053503;28;20095;-74
2024/01/09 03:48:54;;;;;;;5.90;3.83;;;-3.20;99.90;;;;;;5035911;28;20037;-74
2024/01/09 03:51:20;;;;;;;5.60;2.80;;;-3.00;99.90;;;;;;5053620;28;20135;-74
2024/01/09 03:53:45;;;;;;;7.00;2.60;;;-3.00;99.90;;;;;;5053842;28;20079;-74
2024/01/09 03:56:11;;;;;;;5.90;3.00;;;-3.00;99.90;;;;;;5035788;28;20412;-74
2024/01/09 03:58:37;;;;;;;6.60;3.13;;;-3.10;99.90;;;;;;5053541;28;20073;-74
2024/01/09 04:01:03;;;;;;;4.40;2.60;;;-3.00;99.90;;;;;;5035727;28;20101;-74
2024/01/09 04:03:28;;;;;;;4.15;2.72;;;-3.10;99.90;;;;;;5053347;28;20045;-74
2024/01/09 04:05:54;;;;;;;4.88;2.78;;;-3.00;99.90;;;;;;5053089;28;20044;-74
2024/01/09 04:08:20;;;;;;;7.65;3.30;;;-3.10;99.90;;;;;;5053174;28;20037;-74
2024/01/09 04:10:45;;;;;;;7.28;3.28;;;-3.20;99.90;;;;;;5053564;28;20037;-74
2024/01/09 04:13:11;;;;;;;5.57;3.28;;;-3.10;99.90;;;;;;5035506;28;20087;-74
2024/01/09 04:15:38;;;;;;;5.57;2.92;;;-3.10;99.90;;;;;;5053243;28;20107;-74
2024/01/09 04:18:04;;;;;;;5.13;3.17;;;-3.10;99.90;;;;;;5052969;28;20079;-74
2024/01/09 04:20:29;;;;;;;6.35;2.75;;;-3.10;99.90;;;;;;5035333;28;20461;-74
2024/01/09 04:22:55;;;;;;;9.27;3.80;;;-3.10;99.90;;;;;;5053050;28;20120;-74
2024/01/09 04:25:20;;;;;;;5.47;3.13;;;-3.20;99.90;;;;;;5035133;28;20041;-74
2024/01/09 04:27:46;;;;;;;6.50;3.50;;;-3.10;99.90;;;;;;5034950;28;20037;-74
2024/01/09 04:30:12;;;;;;;5.13;2.90;;;-3.20;99.90;;;;;;5035475;28;20072;-74
2024/01/09 04:32:37;;;;;;;6.43;2.78;;;-3.20;99.90;;;;;;5052841;28;20094;-74
2024/01/09 04:35:03;;;;;;;7.28;3.38;;;-3.20;99.90;;;;;;5052937;28;20152;-74
2024/01/09 04:37:29;;;;;;;7.40;3.70;;;-3.20;99.90;;;;;;5034852;28;20048;-74
2024/01/09 04:39:54;;;;;;;6.43;2.88;;;-3.30;99.90;;;;;;5052813;28;20389;-74
2024/01/09 04:42:20;;;;;;;7.88;3.25;;;-3.30;99.90;;;;;;5035036;28;20044;-74
2024/01/09 04:44:46;;;;;;;8.05;3.33;;;-3.20;99.90;;;;;;5034755;28;20044;-74
2024/01/09 04:47:15;;;;;;;6.88;3.28;;;-3.30;99.90;;;;;;5034602;28;20446;-74
2024/01/09 04:49:44;;;;;;;6.72;2.78;;;-3.30;99.90;;;;;;5034775;28;20451;-74
2024/01/09 04:52:10;;;;;;;5.95;3.30;;;-3.30;99.90;;;;;;5052753;28;20045;-74
2024/01/09 04:54:36;;;;;;;8.13;3.97;;;-3.40;99.90;;;;;;5052371;28;20140;-74
2024/01/09 04:57:02;;;;;;;7.13;3.35;;;-3.30;99.90;;;;;;5034149;28;20041;-74
2024/01/09 04:59:28;;;;;;;6.60;3.00;;;-3.30;99.90;;;;;;5052313;28;20476;-74
2024/01/09 05:01:53;;;;;;;6.68;3.20;;;-3.30;99.90;;;;;;5034362;28;20045;-74
2024/01/09 05:04:19;;;;;;;8.20;3.67;;;-3.30;99.90;;;;;;5052432;28;20051;-74
2024/01/09 05:06:45;;;;;;;4.82;2.85;;;-3.30;99.90;;;;;;5052118;28;20033;-75
2024/01/09 05:09:11;;;;;;;8.38;3.47;;;-3.40;99.90;;;;;;5052070;28;20497;-74
2024/01/09 05:11:37;;;;;;;6.85;3.83;;;-3.40;99.90;;;;;;5051848;28;20036;-74
2024/01/09 05:14:02;;;;;;;6.88;3.92;;;-3.50;99.90;;;;;;5034329;28;20393;-74
2024/01/09 05:16:28;;;;;;;6.43;3.50;;;-3.50;99.90;;;;;;5030882;28;20080;-75
2024/01/09 05:18:54;;;;;;;6.40;3.42;;;-3.40;99.90;;;;;;5014202;28;20041;-75
2024/01/09 05:21:20;;;;;;;5.05;3.10;;;-3.50;99.90;;;;;;5014484;28;20042;-74
2024/01/09 05:23:46;;;;;;;8.35;3.22;;;-3.50;99.90;;;;;;5032031;28;20124;-74
2024/01/09 05:26:11;;;;;;;5.28;3.60;;;-3.50;99.90;;;;;;5014372;28;20112;-74
2024/01/09 05:28:37;;;;;;;13.15;4.18;;;-3.50;99.90;;;;;;5014177;28;20448;-74
2024/01/09 05:31:03;;;;;;;9.57;3.35;;;-3.50;99.90;;;;;;5014545;28;20493;-74
2024/01/09 05:33:28;;;;;;;7.65;3.25;;;-3.50;99.90;;;;;;5032098;28;20539;-75
2024/01/09 05:35:54;;;;;;;7.30;3.60;;;-3.70;99.90;;;;;;5013547;28;20429;-74
2024/01/09 05:38:20;;;;;;;7.05;3.78;;;-3.70;99.90;;;;;;4997401;28;20172;-75
2024/01/09 05:40:46;;;;;;;11.70;3.75;;;-3.60;99.90;;;;;;5014093;28;20150;-75
2024/01/09 05:43:12;;;;;;;5.90;3.53;;;-3.60;99.90;;;;;;5031785;28;20096;-75
2024/01/09 05:45:38;;;;;;;5.53;2.97;;;-3.70;99.90;;;;;;5013719;28;20529;-75
2024/01/09 05:48:04;;;;;;;6.15;3.63;;;-3.60;99.90;;;;;;5013025;28;20102;-75
2024/01/09 05:50:29;;;;;;;6.45;4.35;;;-3.60;99.90;;;;;;5013864;28;20112;-75
2024/01/09 05:52:55;;;;;;;6.07;3.88;;;-3.60;99.90;;;;;;5031680;28;20191;-75
2024/01/09 05:55:21;;;;;;;7.25;3.40;;;-3.70;99.90;;;;;;5031499;28;20548;-75
2024/01/09 05:57:46;;;;;;;4.57;3.28;;;-3.60;99.90;;;;;;5013823;28;20559;-75
2024/01/09 06:00:12;;;;;;;7.88;3.38;;;-3.60;99.90;;;;;;5031418;28;20037;-75
2024/01/09 06:02:38;;;;;;;8.57;4.15;;;-3.80;99.90;;;;;;5013907;28;20050;-75
2024/01/09 06:05:04;;;;;;;4.75;3.08;;;-3.60;99.90;;;;;;5031463;28;20466;-75
2024/01/09 06:07:30;;;;;;;4.88;2.97;;;-3.70;99.90;;;;;;5031109;28;20044;-75
2024/01/09 06:09:55;;;;;;;5.00;3.00;;;-3.70;99.90;;;;;;5031398;28;20037;-75
2024/01/09 06:12:21;;;;;;;6.72;3.72;;;-3.70;99.90;;;;;;5031313;28;20467;-75
2024/01/09 06:14:47;;;;;;;4.88;3.13;;;-3.60;99.90;;;;;;5013610;28;20037;-75
2024/01/09 06:17:12;;;;;;;4.63;3.00;;;-3.80;99.90;;;;;;5013542;28;20041;-75
2024/01/09 06:19:38;;;;;;;8.32;3.50;;;-3.80;99.90;;;;;;5031455;28;20037;-75
2024/01/09 06:22:04;;;;;;;10.98;4.35;;;-3.80;99.90;;;;;;5031422;28;20386;-75
2024/01/09 06:24:29;;;;;;;5.40;3.10;;;-3.80;99.90;;;;;;4997320;28;20049;-75
2024/01/09 06:26:55;;;;;;;5.22;2.92;;;-3.80;99.90;;;;;;5030931;28;20068;-75
2024/01/09 06:29:22;;;;;;;5.88;3.88;;;-3.80;99.90;;;;;;5013609;28;20037;-75
2024/01/09 06:31:48;;;;;;;7.25;3.70;;;-3.80;99.90;;;;;;5031239;28;20038;-75
2024/01/09 06:34:14;;;;;;;8.02;3.38;;;-3.80;99.90;;;;;;5013420;28;20048;-75
2024/01/09 06:36:40;;;;;;;6.68;3.15;;;-3.80;99.90;;;;;;5013349;28;20374;-75
2024/01/09 06:39:06;;;;;;;7.70;4.20;;;-3.90;99.90;;;;;;5031032;28;20045;-75
2024/01/09 06:41:31;;;;;;;6.38;3.67;;;-3.90;99.90;;;;;;5030967;28;20044;-75
2024/01/09 06:43:57;;;;;;;7.18;3.88;;;-3.90;99.90;;;;;;5031035;28;20037;-75
2024/01/09 06:46:23;;;;;;;5.40;3.15;;;-4.00;99.90;;;;;;5013159;28;20034;-75
2024/01/09 06:48:48;;;;;;;7.53;3.83;;;-3.90;99.90;;;;;;5034743;28;20559;-75
2024/01/09 06:51:14;;;;;;;5.03;3.45;;;-3.80;99.90;;;;;;5017170;28;20409;-75
2024/01/09 06:53:39;;;;;;;6.50;4.00;;;-3.80;99.90;;;;;;5034909;28;20037;-75
2024/01/09 06:56:05;;;;;;;7.75;3.42;;;-3.90;99.90;;;;;;5000363;28;20041;-75
2024/01/09 06:58:31;;;;;;;6.32;3.50;;;-3.80;99.90;;;;;;5034276;28;20033;-75
2024/01/09 07:00:57;;;;;;;5.05;3.38;;;-3.90;99.90;;;;;;5034449;28;20480;-75
2024/01/09 07:03:23;;;;;;;7.38;3.80;;;-3.90;99.90;;;;;;5034753;28;20448;-75
2024/01/09 07:05:49;;;;;;;9.43;2.92;;;-3.90;99.90;;;;;;5034368;28;20415;-75
2024/01/09 07:08:15;;;;;;;7.22;3.35;;;-3.90;99.90;;;;;;5034459;28;20225;-75
2024/01/09 07:10:41;;;;;;;8.43;3.88;;;-3.90;99.90;;;;;;5016549;28;20045;-75
2024/01/09 07:13:06;;;;;;;6.13;3.75;;;-4.00;99.90;;;;;;5034372;28;20033;-75
2024/01/09 07:15:32;;;;;;;7.00;3.78;;;-3.90;99.90;;;;;;5016722;28;20045;-75
2024/01/09 07:17:58;;;;;;;6.68;3.75;;;-4.00;99.90;;;;;;5034198;28;20044;-75
2024/01/09 07:20:23;;;;;;;6.28;3.70;;;-3.90;99.90;;;;;;5034513;28;20048;-75
2024/01/09 07:22:49;;;;;;;9.20;4.05;;;-4.00;99.90;;;;;;5016496;28;20042;-75
2024/01/09 07:25:15;;;;;;;10.43;3.95;;;-4.00;99.90;;;;;;5016459;28;20045;-75
2024/01/09 07:27:40;;;;;;;6.30;4.10;;;-4.00;99.90;;;;;;5016324;28;20037;-75
2024/01/09 07:30:07;;;;;;;8.35;4.13;;;-4.00;99.90;;;;;;5034291;28;20160;-75
2024/01/09 07:32:33;;;;;;;6.28;3.42;;;-3.90;99.90;;;;;;5016238;28;20042;-75
2024/01/09 07:34:59;;;;;;;5.93;3.42;;;-4.00;99.90;;;;;;5033975;28;20041;-75
2024/01/09 07:37:25;;;;;;;8.25;4.45;;;-4.00;99.90;;;;;;5033779;28;20041;-75
2024/01/09 07:39:50;;;;;;;7.40;4.00;;;-4.00;99.90;;;;;;5016175;28;20071;-75
2024/01/09 07:42:16;;;;;;;14.18;3.85;;;-4.00;99.90;;;;;;5033838;28;20045;-75
2024/01/09 07:44:41;;;;;;;7.03;3.55;;;-4.00;99.90;;;;;;5018228;28;20048;-75
2024/01/09 07:47:07;;;;;;;6.05;3.50;;;-4.00;99.90;;;;;;5053041;28;20041;-76
2024/01/09 07:49:33;;;;;;;6.47;3.85;;;-4.00;99.90;;;;;;5053642;28;20400;-76
2024/01/09 07:51:59;;;;;;;9.82;4.03;;;-4.00;99.90;;;;;;5053797;28;20171;-75
2024/01/09 07:54:25;;;;;;;7.05;3.78;;;-3.90;99.90;;;;;;5053713;28;20139;-75
2024/01/09 07:56:50;;;;;;;6.43;3.45;;;-4.00;99.90;;;;;;5035161;28;20040;-75
2024/01/09 07:59:16;;;;;;;7.28;3.78;;;-3.90;99.90;;;;;;5035273;28;20179;-75
2024/01/09 08:01:42;;;;;;;6.72;3.70;;;-3.90;99.90;;;;;;5053761;28;20055;-75
2024/01/09 08:04:07;;;;;;;8.10;3.92;;;-3.90;99.90;;;;;;5035430;28;20061;-76
2024/01/09 08:06:33;;;;;;;9.73;5.20;;;-3.90;99.90;;;;;;5035082;28;20032;-75
2024/01/09 08:08:59;;;;;;;7.70;4.13;;;-3.90;99.90;;;;;;5035486;28;20450;-75
2024/01/09 08:11:24;;;;;;;6.47;3.72;;;-3.90;99.90;;;;;;5035455;28;20033;-75
2024/01/09 08:13:50;;;;;;;6.38;3.70;;;-3.90;99.90;;;;;;5035712;28;20400;-75
2024/01/09 08:16:16;;;;;;;5.28;3.40;;;-3.80;99.90;;;;;;5035006;28;20559;-76
2024/01/09 08:18:41;;;;;;;7.88;3.80;;;-3.90;99.90;;;;;;5034914;28;20041;-76
2024/01/09 08:21:07;;;;;;;9.90;3.80;;;-3.80;99.90;;;;;;5018835;28;20117;-76
2024/01/09 08:23:34;;;;;;;7.43;3.50;;;-3.80;99.90;;;;;;5035388;28;20114;-75
2024/01/09 08:26:00;;;;;;;6.47;3.58;;;-3.80;99.90;;;;;;5052302;28;20044;-77
2024/01/09 08:28:25;;;;;;;7.82;4.00;;;-3.80;99.90;;;;;;5034470;28;20041;-76
2024/01/09 08:30:51;;;;;;;10.68;4.65;;;-3.80;99.90;;;;;;5052711;28;20068;-75
2024/01/09 08:33:17;;;;;;;7.15;3.63;;;-3.90;99.90;;;;;;5053042;28;20561;-76
2024/01/09 08:35:44;;;;;;;6.63;3.58;;;-3.80;99.90;;;;;;5052848;28;20040;-75
2024/01/09 08:38:10;;;;;;;7.43;3.50;;;-3.80;99.90;;;;;;5034764;28;20516;-75
2024/01/09 08:40:35;;;;;;;8.07;4.05;;;-3.80;99.90;;;;;;5034862;28;20041;-75
2024/01/09 08:43:01;;;;;;;6.22;3.50;;;-3.70;99.90;;;;;;5034871;28;20120;-75
2024/01/09 08:45:27;;;;;;;11.13;4.43;;;-3.60;99.90;;;;;;5052711;28;20062;-75
2024/01/09 08:47:52;;;;;;;8.43;3.63;;;-3.60;99.90;;;;;;5017460;28;20032;-75
2024/01/09 08:50:18;;;;;;;6.78;3.92;;;-3.60;99.90;;;;;;5034787;28;20412;-75
2024/01/09 08:52:43;;;;;;;7.82;3.47;;;-3.60;99.90;;;;;;5034739;28;20037;-75
2024/01/09 08:55:09;;;;;;;7.35;4.13;;;-3.60;99.90;;;;;;5052384;28;20167;-75
2024/01/09 08:57:35;;;;;;;6.35;3.60;;;-3.50;99.90;;;;;;5034221;28;20047;-74
2024/01/09 09:00:00;;;;;;;6.72;3.40;;;-3.50;99.90;;;;;;5052033;28;20041;-75
2024/01/09 09:02:27;;;;;;;7.75;4.88;;;-3.50;99.90;;;;;;5052592;28;20037;-74
2024/01/09 09:04:53;;;;;;;6.75;3.97;;;-3.40;99.90;;;;;;5034554;28;20095;-76
2024/01/09 09:07:20;;;;;;;9.23;4.65;;;-3.30;99.90;;;;;;5088490;23;20051;-73
2024/01/09 09:09:45;;;;;;;5.95;3.40;;;-3.40;99.90;;;;;;5090758;28;20093;-72
2024/01/09 09:12:12;;;;;;;9.50;3.88;;;-3.30;99.90;;;;;;5074278;28;20509;-73
2024/01/09 09:14:37;;;;;;;8.05;4.07;;;-3.30;99.90;;;;;;5057869;28;20079;-73
2024/01/09 09:17:03;;;;;;;7.88;4.07;;;-3.30;99.90;;;;;;5092424;28;20075;-73
2024/01/09 09:19:31;;;;;;;6.00;3.83;;;-3.20;99.90;;;;;;5092221;28;20072;-73
2024/01/09 09:21:57;;;;;;;9.05;4.47;;;-3.20;99.90;;;;;;5107926;28;20491;-73
2024/01/09 09:24:23;;;;;;;6.50;3.85;;;-3.20;99.90;;;;;;5091011;28;20109;-73
2024/01/09 09:26:49;;;;;;;9.57;4.38;;;-3.10;99.90;;;;;;5107723;28;20054;-73
2024/01/09 09:29:14;;;;;;;6.10;3.88;;;-3.10;99.90;;;;;;5090721;28;20031;-73
2024/01/09 09:31:40;;;;;;;10.93;4.53;;;-3.00;99.90;;;;;;5090913;28;20124;-73
2024/01/09 09:34:06;;;;;;;9.13;4.65;;;-3.00;99.90;;;;;;5091342;28;20119;-73
2024/01/09 09:36:32;;;;;;;6.80;3.80;;;-2.90;99.90;;;;;;5107645;28;20055;-73
2024/01/09 09:38:58;;;;;;;8.40;3.63;;;-3.00;99.90;;;;;;5090764;28;20044;-73
2024/01/09 09:41:23;;;;;;;9.82;5.03;;;-2.90;99.90;;;;;;5090688;28;20051;-73
2024/01/09 09:43:55;;;;;;;9.05;4.60;;;-2.90;99.90;;;;;;5090499;28;20036;-73
2024/01/09 09:46:31;;;;;;;8.70;4.72;;;-2.90;99.90;;;;;;5090602;28;20111;-73
2024/01/09 09:48:57;;;;;;;6.55;3.97;;;-2.90;99.90;;;;;;5107755;28;20090;-73
2024/01/09 09:51:25;;;;;;;7.22;3.90;;;-2.90;99.90;;;;;;5091783;28;20047;-73
2024/01/09 09:53:53;;;;;;;7.63;3.65;;;-2.80;99.90;;;;;;5090681;28;20492;-73
2024/01/09 09:56:19;;;;;;;7.85;4.45;;;-2.80;99.90;;;;;;5080992;28;20143;-74
2024/01/09 09:58:44;;;;;;;9.80;3.70;;;-2.80;99.90;;;;;;5070100;28;20064;-73
2024/01/09 10:01:12;;;;;;;6.43;3.70;;;-2.70;99.90;;;;;;5071583;28;20032;-74
2024/01/09 10:03:54;;;;;;;6.45;4.32;;;-2.70;99.90;;;;;;5071441;28;20534;-75
2024/01/09 10:06:21;;;;;;;7.28;4.00;;;-2.60;99.90;;;;;;5070564;28;20036;-75
2024/01/09 10:08:49;;;;;;;7.07;4.18;;;-2.70;99.90;;;;;;5071785;28;20431;-75
2024/01/09 10:11:15;;;;;;;7.60;3.75;;;-2.60;99.90;;;;;;5053606;28;20036;-75
2024/01/09 10:13:42;;;;;;;8.95;4.75;;;-2.60;99.90;;;;;;5070179;28;20049;-75
2024/01/09 10:16:08;;;;;;;8.35;4.00;;;-2.60;99.90;;;;;;5071307;28;20052;-75
2024/01/09 10:18:35;;;;;;;6.15;3.63;;;-2.50;99.90;;;;;;5069918;28;20040;-75
2024/01/09 10:21:01;;;;;;;6.25;3.63;;;-2.50;99.90;;;;;;5071608;28;20040;-76
2024/01/09 10:23:27;;;;;;;6.03;4.50;;;-2.30;99.90;;;;;;5075413;28;20037;-75
2024/01/09 10:25:56;;;;;;;6.03;3.67;;;-2.20;99.90;;;;;;5073527;28;20074;-76
2024/01/09 10:28:23;;;;;;;8.00;3.65;;;-2.10;99.90;;;;;;5075081;28;20067;-75
2024/01/09 10:30:54;;;;;;;6.97;3.40;;;-2.00;99.90;;;;;;5075194;28;20033;-75
2024/01/09 10:33:20;;;;;;;4.43;2.53;;;-2.00;99.90;;;;;;5076207;28;20036;-75
2024/01/09 10:35:45;;;;;;;7.65;3.65;;;-1.90;99.90;;;;;;5083612;28;20119;-75
2024/01/09 10:38:11;;;;;;;4.78;3.45;;;-1.80;99.90;;;;;;5087267;28;20097;-76
2024/01/09 10:40:37;;;;;;;6.05;3.00;;;-1.80;99.90;;;;;;5095646;28;20070;-76
2024/01/09 10:43:03;;;;;;;6.32;2.97;;;-1.80;99.90;;;;;;5093909;28;20520;-75
2024/01/09 10:45:31;;;;;;;6.35;3.05;;;-1.80;99.90;;;;;;5095123;28;20055;-75
2024/01/09 10:47:58;;;;;;;6.25;3.03;;;-1.70;99.90;;;;;;5095282;28;20414;-75
2024/01/09 10:50:24;;;;;;;5.43;3.38;;;-1.60;99.90;;;;;;5095545;28;20044;-75
2024/01/09 10:52:51;;;;;;;5.38;3.17;;;-1.60;99.90;;;;;;5094089;28;20040;-75
2024/01/09 10:55:19;;;;;;;5.88;2.92;;;-1.50;99.90;;;;;;5095170;28;20044;-74
2024/01/09 10:57:48;;;;;;;6.05;2.50;;;-1.50;99.90;;;;;;5094684;28;20127;-74
2024/01/09 11:00:14;;;;;;;8.27;3.17;;;-1.40;99.90;;;;;;5095006;28;20040;-74
2024/01/09 11:02:40;;;;;;;4.72;2.70;;;-1.40;99.90;;;;;;5094909;28;20458;-75
2024/01/09 11:05:07;;;;;;;6.40;2.72;;;-1.30;99.90;;;;;;5093600;28;20069;-74
2024/01/09 11:07:33;;;;;;;8.02;3.65;;;-1.30;99.90;;;;;;5093656;28;20475;-75
2024/01/09 11:10:00;;;;;;;4.57;2.38;;;-1.30;99.90;;;;;;5093528;28;20441;-75
2024/01/09 11:12:32;;;;;;;5.97;2.65;;;-1.30;99.90;;;;;;5093565;28;20031;-75
2024/01/09 11:15:07;;;;;;;6.80;3.17;;;-1.20;99.90;;;;;;5093551;28;20055;-75
2024/01/09 11:17:35;;;;;;;5.80;3.08;;;-1.20;99.90;;;;;;5094703;28;20043;-76
2024/01/09 11:20:05;;;;;;;5.20;2.50;;;-1.20;99.90;;;;;;5093186;28;20046;-75
2024/01/09 11:22:36;;;;;;;4.50;2.58;;;-1.20;99.90;;;;;;5076336;28;20488;-75
2024/01/09 11:25:05;;;;;;;6.00;2.60;;;-1.20;99.90;;;;;;5093233;28;20079;-75
2024/01/09 11:27:41;;;;;;;4.90;2.92;;;-1.10;99.90;;;;;;5090353;28;20563;-75
2024/01/09 11:30:09;;;;;;;2.50;1.85;;;-1.10;99.90;;;;;;5091339;28;20111;-75
2024/01/09 11:32:35;;;;;;;3.67;2.60;;;-1.10;99.90;;;;;;5090634;28;20036;-74
2024/01/09 11:35:09;;;;;;;4.38;2.42;;;-1.10;99.90;;;;;;5093846;28;20047;-75
2024/01/09 11:37:40;;;;;;;4.50;2.67;;;-1.00;99.90;;;;;;5093022;28;20048;-75
2024/01/09 11:40:11;;;;;;;5.30;2.38;;;-0.90;99.90;;;;;;5088266;28;20057;-75
2024/01/09 11:42:47;;;;;;;4.70;2.42;;;-1.00;99.90;;;;;;5081001;28;20040;-75
2024/01/09 11:45:23;;;;;;;4.65;2.20;;;-1.00;99.90;;;;;;5092015;28;20534;-75
2024/01/09 11:47:49;;;;;;;4.13;2.42;;;-1.00;99.90;;;;;;5094150;28;20094;-75
2024/01/09 11:50:16;;;;;;;5.05;3.05;;;-1.00;99.90;;;;;;5109730;28;20102;-75
2024/01/09 11:52:42;;;;;;;3.65;2.17;;;-0.90;99.90;;;;;;5092725;28;20040;-75
2024/01/09 11:55:11;;;;;;;3.42;2.63;;;-0.90;99.90;;;;;;5109794;28;20039;-75
2024/01/09 11:57:39;;;;;;;6.32;2.40;;;-0.90;99.90;;;;;;5091733;28;20047;-75
2024/01/09 12:00:06;;;;;;;4.57;2.40;;;-0.90;99.90;;;;;;5100899;28;20039;-75
2024/01/09 12:02:33;;;;;;;8.30;2.50;;;-0.80;99.90;;;;;;5093686;28;20052;-75
2024/01/09 12:05:00;;;;;;;5.35;3.45;;;-0.80;99.90;;;;;;5109859;28;20047;-75
2024/01/09 12:07:27;;;;;;;5.20;2.22;;;-0.80;99.90;;;;;;5109147;28;20036;-75
2024/01/09 12:09:53;;;;;;;4.45;2.50;;;-0.70;99.90;;;;;;5092369;28;20036;-75
2024/01/09 12:12:23;;;;;;;4.28;2.90;;;-0.70;99.90;;;;;;5093774;28;20036;-75
2024/01/09 12:14:57;;;;;;;5.38;2.55;;;-0.70;99.90;;;;;;5109304;28;20051;-75
2024/01/09 12:17:27;;;;;;;4.53;2.97;;;-0.70;99.90;;;;;;5093273;28;20067;-76
2024/01/09 12:19:53;;;;;;;5.07;2.83;;;-0.60;99.90;;;;;;5109436;28;20054;-75
2024/01/09 12:22:22;;;;;;;5.32;3.00;;;-0.70;99.90;;;;;;5109227;28;20036;-76
2024/01/09 12:24:52;;;;;;;4.95;2.47;;;-0.70;99.90;;;;;;5109259;28;20039;-76
2024/01/09 12:27:20;;;;;;;4.20;2.50;;;-0.70;99.90;;;;;;5108360;28;20032;-76
2024/01/09 12:29:46;;;;;;;7.53;2.80;;;-0.70;99.90;;;;;;5109207;28;20036;-76
2024/01/09 12:32:13;;;;;;;6.07;3.05;;;-0.70;99.90;;;;;;5108850;28;20040;-76
2024/01/09 12:34:39;;;;;;;11.05;3.28;;;-0.70;99.90;;;;;;5109084;28;20066;-76
2024/01/09 12:37:07;;;;;;;4.85;2.58;;;-0.70;99.90;;;;;;5108626;28;20048;-76
2024/01/09 12:39:35;;;;;;;6.82;3.45;;;-0.60;99.90;;;;;;5091608;28;20040;-75
2024/01/09 12:42:07;;;;;;;6.45;3.10;;;-0.60;99.90;;;;;;5108691;28;20036;-75